Afton, TX

5:12 AM CST on February 22, 2017 (GMT -0600)
MRRST2 | | Change Station
Active Advisory: Fire Weather Warning

Elev 2614 ft 33.94 °N, 100.85 °W | Updated 46 minutes ago

Clear
Clear
49.0 °F
Feels Like 44 °F
N
11.0
Wind Variable Wind from West
Gusts 13.0 mph

Today
High -- | Low -- °F
--% Chance of Precip.
Yesterday
High -- | Low -- °F
Precip. -- in
Pressure 29.85 in
Visibility 10.0 miles
Clouds Clear
Windchill 44 °F
Dew Point 34 °F
Humidity 57%
Rainfall 0.00 in
Snow Depth Not available.
7:19 AM 6:34 PM
Waning Crescent, 18% visible
METAR KCDS 221053Z AUTO 28004KT 10SM CLR 08/01 A2989 RMK AO2 SLP107 T00830011
Pressure 29.85 in
Visibility 10.0 miles
Clouds Clear
Windchill 44 °F
Dew Point 34 °F
Humidity 57%
Rainfall 0.00 in
Snow Depth Not available.
7:19 AM 6:34 PM
Waning Crescent, 18% visible
METAR KCDS 221053Z AUTO 28004KT 10SM CLR 08/01 A2989 RMK AO2 SLP107 T00830011

Get Your Daily Forecast Email!

Thanks for signing up!

Be on the lookout for a verification email in your inbox.

You'll start receiving the daily forecast at 8 AM.

×

10-Day Weather Forecast

Almanac

Astronomy

Feb. 22, 2017 Rise Set
Actual Time
Civil Twilight
Nautical Twilight
Astronomical Twilight
Moon
Length of Visible Light
Length of Day
Tomorrow will be .
, % of the Moon is Illuminated

Today's Extremes

State Highs State Lows

Community

WunderPhotos

Upload Photos

1,962,540 photos uploaded!

WunderBlog® & News

Nearby

Air Quality

  Air Quality AQ Index Pollutant
Not available.

Snow Depth

Station Depth Elevation

Earthquake Activity

City Distance Mag. Time & Date
Minimum magnitude displayed is 2.5.

Coastal Water Temperatures

Place Temperature

Stations

Nearby Weather Stations

Station Location Temp. Windchill Dew Point Humidity Wind Precip. Elev Updated Type
                   

Watches & Warnings

Fire Weather Warning
Issued: 3:51 AM CST Feb. 22, 2017 – National Weather Service

... Red flag warning in effect from 11 am to 8 PM CST Thursday for
the rolling plains and extreme southeastern Texas Panhandle for
20 foot winds of 20 mph or more... relative humidities of 15
percent or less and a high fire danger...

The National Weather Service in Lubbock has issued a red flag
warning, which is in effect from 11 am to 8 PM CST Thursday. The
Fire Weather Watch is no longer in effect.

* Wind... westerly winds at 25 to 30 mph with gusts to 45 mph.

* Humidity... between 5 and 10 percent.

* Fuels... dry.

* Impacts... any fires that develop can spread rapidly. Outdoor
burning is discouraged.

Precautionary/preparedness actions...

A red flag warning means that critical fire weather conditions
are imminent or already occurring. These conditions can create
rapid wildfire growth.